sensor_id;sensor_type;location;lat;lon;timestamp;temperature;humidity
11666;DHT22;5889;51.350;6.708;2022-12-24T00:00:25;11.20;99.90
11666;DHT22;5889;51.350;6.708;2022-12-24T00:02:54;11.20;99.90
11666;DHT22;5889;51.350;6.708;2022-12-24T00:05:21;11.20;99.90
11666;DHT22;5889;51.350;6.708;2022-12-24T00:07:48;11.20;99.90
11666;DHT22;5889;51.350;6.708;2022-12-24T00:10:16;11.20;99.90
11666;DHT22;5889;51.350;6.708;2022-12-24T00:12:43;11.10;99.90
11666;DHT22;5889;51.350;6.708;2022-12-24T00:15:10;11.10;99.90
11666;DHT22;5889;51.350;6.708;2022-12-24T00:17:37;11.00;99.90
11666;DHT22;5889;51.350;6.708;2022-12-24T00:20:05;11.00;99.90
11666;DHT22;5889;51.350;6.708;2022-12-24T00:22:33;11.00;99.90
11666;DHT22;5889;51.350;6.708;2022-12-24T00:24:59;11.00;99.90
11666;DHT22;5889;51.350;6.708;2022-12-24T00:27:28;11.00;99.90
11666;DHT22;5889;51.350;6.708;2022-12-24T00:29:55;11.00;99.90
11666;DHT22;5889;51.350;6.708;2022-12-24T00:32:22;11.00;99.90
11666;DHT22;5889;51.350;6.708;2022-12-24T00:34:49;10.90;99.90
11666;DHT22;5889;51.350;6.708;2022-12-24T00:37:16;10.90;99.90
11666;DHT22;5889;51.350;6.708;2022-12-24T00:39:43;10.90;99.90
11666;DHT22;5889;51.350;6.708;2022-12-24T00:42:10;10.80;99.90
11666;DHT22;5889;51.350;6.708;2022-12-24T00:44:38;10.80;99.90
11666;DHT22;5889;51.350;6.708;2022-12-24T00:47:05;10.70;99.90
11666;DHT22;5889;51.350;6.708;2022-12-24T00:49:32;10.70;99.90
11666;DHT22;5889;51.350;6.708;2022-12-24T00:51:59;10.70;99.90
11666;DHT22;5889;51.350;6.708;2022-12-24T00:54:27;10.70;99.90
11666;DHT22;5889;51.350;6.708;2022-12-24T00:56:54;10.60;99.90
11666;DHT22;5889;51.350;6.708;2022-12-24T00:59:21;10.60;99.90
11666;DHT22;5889;51.350;6.708;2022-12-24T01:01:50;10.60;99.90
11666;DHT22;5889;51.350;6.708;2022-12-24T01:04:17;10.50;99.90
11666;DHT22;5889;51.350;6.708;2022-12-24T01:07:01;10.50;99.90
11666;DHT22;5889;51.350;6.708;2022-12-24T01:09:28;10.50;99.90
11666;DHT22;5889;51.350;6.708;2022-12-24T01:11:55;10.50;99.90
11666;DHT22;5889;51.350;6.708;2022-12-24T01:14:22;10.40;99.90
11666;DHT22;5889;51.350;6.708;2022-12-24T01:16:50;10.40;99.90
11666;DHT22;5889;51.350;6.708;2022-12-24T01:19:17;10.40;99.90
11666;DHT22;5889;51.350;6.708;2022-12-24T01:21:44;10.40;99.90
11666;DHT22;5889;51.350;6.708;2022-12-24T01:24:13;10.40;99.90
11666;DHT22;5889;51.350;6.708;2022-12-24T01:26:41;10.40;99.90
11666;DHT22;5889;51.350;6.708;2022-12-24T01:29:08;10.40;99.90
11666;DHT22;5889;51.350;6.708;2022-12-24T01:31:34;10.30;99.90
11666;DHT22;5889;51.350;6.708;2022-12-24T01:34:03;10.30;99.90
11666;DHT22;5889;51.350;6.708;2022-12-24T01:36:30;10.30;99.90
11666;DHT22;5889;51.350;6.708;2022-12-24T01:38:57;10.30;99.90
11666;DHT22;5889;51.350;6.708;2022-12-24T01:41:24;10.30;99.90
11666;DHT22;5889;51.350;6.708;2022-12-24T01:44:20;10.30;99.90
11666;DHT22;5889;51.350;6.708;2022-12-24T01:46:49;10.30;99.90
11666;DHT22;5889;51.350;6.708;2022-12-24T01:49:19;10.30;99.90
11666;DHT22;5889;51.350;6.708;2022-12-24T01:51:48;10.30;99.90
11666;DHT22;5889;51.350;6.708;2022-12-24T01:54:19;10.30;99.90
11666;DHT22;5889;51.350;6.708;2022-12-24T01:56:50;10.30;99.90
11666;DHT22;5889;51.350;6.708;2022-12-24T01:59:19;10.20;99.90
11666;DHT22;5889;51.350;6.708;2022-12-24T02:01:47;10.20;99.90
11666;DHT22;5889;51.350;6.708;2022-12-24T02:04:23;10.20;99.90
11666;DHT22;5889;51.350;6.708;2022-12-24T02:06:54;10.20;99.90
11666;DHT22;5889;51.350;6.708;2022-12-24T02:09:22;10.20;99.90
11666;DHT22;5889;51.350;6.708;2022-12-24T02:11:49;10.20;99.90
11666;DHT22;5889;51.350;6.708;2022-12-24T02:14:16;10.10;99.90
11666;DHT22;5889;51.350;6.708;2022-12-24T02:16:47;10.10;99.90
11666;DHT22;5889;51.350;6.708;2022-12-24T02:22:27;10.10;99.90
11666;DHT22;5889;51.350;6.708;2022-12-24T02:25:18;10.10;99.90
11666;DHT22;5889;51.350;6.708;2022-12-24T02:27:54;10.10;99.90
11666;DHT22;5889;51.350;6.708;2022-12-24T02:30:26;10.00;99.90
11666;DHT22;5889;51.350;6.708;2022-12-24T02:33:19;10.00;99.90
11666;DHT22;5889;51.350;6.708;2022-12-24T02:35:51;10.00;99.90
11666;DHT22;5889;51.350;6.708;2022-12-24T02:38:23;9.90;99.90
11666;DHT22;5889;51.350;6.708;2022-12-24T02:40:53;10.00;99.90
11666;DHT22;5889;51.350;6.708;2022-12-24T02:43:24;9.90;99.90
11666;DHT22;5889;51.350;6.708;2022-12-24T02:45:58;9.90;99.90
11666;DHT22;5889;51.350;6.708;2022-12-24T02:48:27;9.90;99.90
11666;DHT22;5889;51.350;6.708;2022-12-24T02:51:01;9.90;99.90
11666;DHT22;5889;51.350;6.708;2022-12-24T02:53:29;9.90;99.90
11666;DHT22;5889;51.350;6.708;2022-12-24T02:56:11;9.80;99.90
11666;DHT22;5889;51.350;6.708;2022-12-24T02:58:49;9.80;99.90
11666;DHT22;5889;51.350;6.708;2022-12-24T03:01:28;9.80;99.90
11666;DHT22;5889;51.350;6.708;2022-12-24T03:04:05;9.80;99.90
11666;DHT22;5889;51.350;6.708;2022-12-24T03:06:42;9.80;99.90
11666;DHT22;5889;51.350;6.708;2022-12-24T03:09:16;9.80;99.90
11666;DHT22;5889;51.350;6.708;2022-12-24T03:11:49;9.80;99.90
11666;DHT22;5889;51.350;6.708;2022-12-24T03:14:18;9.70;99.90
11666;DHT22;5889;51.350;6.708;2022-12-24T03:16:46;9.80;99.90
11666;DHT22;5889;51.350;6.708;2022-12-24T03:19:14;9.80;99.90
11666;DHT22;5889;51.350;6.708;2022-12-24T03:21:42;9.70;99.90
11666;DHT22;5889;51.350;6.708;2022-12-24T03:24:09;9.80;99.90
11666;DHT22;5889;51.350;6.708;2022-12-24T03:26:37;9.70;99.90
11666;DHT22;5889;51.350;6.708;2022-12-24T03:29:05;9.80;99.90
11666;DHT22;5889;51.350;6.708;2022-12-24T03:31:40;9.80;99.90
11666;DHT22;5889;51.350;6.708;2022-12-24T03:34:09;9.90;99.90
11666;DHT22;5889;51.350;6.708;2022-12-24T03:36:36;9.90;99.90
11666;DHT22;5889;51.350;6.708;2022-12-24T03:39:03;10.00;99.90
11666;DHT22;5889;51.350;6.708;2022-12-24T03:41:30;10.00;99.90
11666;DHT22;5889;51.350;6.708;2022-12-24T03:43:57;10.10;99.90
11666;DHT22;5889;51.350;6.708;2022-12-24T03:46:24;10.10;99.90
11666;DHT22;5889;51.350;6.708;2022-12-24T03:48:51;10.10;99.90
11666;DHT22;5889;51.350;6.708;2022-12-24T03:51:21;10.10;99.90
11666;DHT22;5889;51.350;6.708;2022-12-24T03:53:48;10.20;99.90
11666;DHT22;5889;51.350;6.708;2022-12-24T03:56:17;10.20;99.90
11666;DHT22;5889;51.350;6.708;2022-12-24T03:58:44;10.20;99.90
11666;DHT22;5889;51.350;6.708;2022-12-24T04:01:11;10.20;99.90
11666;DHT22;5889;51.350;6.708;2022-12-24T04:03:38;10.30;99.90
11666;DHT22;5889;51.350;6.708;2022-12-24T04:06:07;10.30;99.90
11666;DHT22;5889;51.350;6.708;2022-12-24T04:08:36;10.40;99.90
11666;DHT22;5889;51.350;6.708;2022-12-24T04:11:04;10.40;99.90
11666;DHT22;5889;51.350;6.708;2022-12-24T04:13:31;10.40;99.90
11666;DHT22;5889;51.350;6.708;2022-12-24T04:16:00;10.40;99.90
11666;DHT22;5889;51.350;6.708;2022-12-24T04:18:27;10.40;99.90
11666;DHT22;5889;51.350;6.708;2022-12-24T04:20:54;10.40;99.90
11666;DHT22;5889;51.350;6.708;2022-12-24T04:23:22;10.40;99.90
11666;DHT22;5889;51.350;6.708;2022-12-24T04:25:50;10.40;99.90
11666;DHT22;5889;51.350;6.708;2022-12-24T04:28:17;10.50;99.90
11666;DHT22;5889;51.350;6.708;2022-12-24T04:30:44;10.50;99.90
11666;DHT22;5889;51.350;6.708;2022-12-24T04:33:11;10.50;99.90
11666;DHT22;5889;51.350;6.708;2022-12-24T04:35:38;10.50;99.90
11666;DHT22;5889;51.350;6.708;2022-12-24T04:38:06;10.50;99.90
11666;DHT22;5889;51.350;6.708;2022-12-24T04:40:34;10.50;99.90
11666;DHT22;5889;51.350;6.708;2022-12-24T04:43:02;10.50;99.90
11666;DHT22;5889;51.350;6.708;2022-12-24T04:45:30;10.50;99.90
11666;DHT22;5889;51.350;6.708;2022-12-24T04:47:57;10.50;99.90
11666;DHT22;5889;51.350;6.708;2022-12-24T04:50:24;10.50;99.90
11666;DHT22;5889;51.350;6.708;2022-12-24T04:52:51;10.50;99.90
11666;DHT22;5889;51.350;6.708;2022-12-24T04:55:18;10.50;99.90
11666;DHT22;5889;51.350;6.708;2022-12-24T04:57:45;10.50;99.90
11666;DHT22;5889;51.350;6.708;2022-12-24T05:00:14;10.50;99.90
11666;DHT22;5889;51.350;6.708;2022-12-24T05:02:40;10.50;99.90
11666;DHT22;5889;51.350;6.708;2022-12-24T05:05:08;10.50;99.90
11666;DHT22;5889;51.350;6.708;2022-12-24T05:07:35;10.50;99.90
11666;DHT22;5889;51.350;6.708;2022-12-24T05:10:02;10.40;99.90
11666;DHT22;5889;51.350;6.708;2022-12-24T05:12:29;10.40;99.90
11666;DHT22;5889;51.350;6.708;2022-12-24T05:14:56;10.40;99.90
11666;DHT22;5889;51.350;6.708;2022-12-24T05:17:24;10.40;99.90
11666;DHT22;5889;51.350;6.708;2022-12-24T05:19:51;10.40;99.90
11666;DHT22;5889;51.350;6.708;2022-12-24T05:22:18;10.40;99.90
11666;DHT22;5889;51.350;6.708;2022-12-24T05:25:02;10.40;99.90
11666;DHT22;5889;51.350;6.708;2022-12-24T05:27:47;10.40;99.90
11666;DHT22;5889;51.350;6.708;2022-12-24T05:30:14;10.40;99.90
11666;DHT22;5889;51.350;6.708;2022-12-24T05:32:42;10.50;99.90
11666;DHT22;5889;51.350;6.708;2022-12-24T05:35:09;10.40;99.90
11666;DHT22;5889;51.350;6.708;2022-12-24T05:37:36;10.40;99.90
11666;DHT22;5889;51.350;6.708;2022-12-24T05:40:03;10.50;99.90
11666;DHT22;5889;51.350;6.708;2022-12-24T05:42:30;10.50;99.90
11666;DHT22;5889;51.350;6.708;2022-12-24T05:44:57;10.50;99.90
11666;DHT22;5889;51.350;6.708;2022-12-24T05:47:24;10.50;99.90
11666;DHT22;5889;51.350;6.708;2022-12-24T05:49:53;10.50;99.90
11666;DHT22;5889;51.350;6.708;2022-12-24T05:52:19;10.50;99.90
11666;DHT22;5889;51.350;6.708;2022-12-24T05:54:46;10.50;99.90
11666;DHT22;5889;51.350;6.708;2022-12-24T05:57:13;10.50;99.90
11666;DHT22;5889;51.350;6.708;2022-12-24T05:59:41;10.50;99.90
11666;DHT22;5889;51.350;6.708;2022-12-24T06:02:08;10.50;99.90
11666;DHT22;5889;51.350;6.708;2022-12-24T06:04:35;10.50;99.90
11666;DHT22;5889;51.350;6.708;2022-12-24T06:07:03;10.50;99.90
11666;DHT22;5889;51.350;6.708;2022-12-24T06:09:30;10.50;99.90
11666;DHT22;5889;51.350;6.708;2022-12-24T06:11:57;10.40;99.90
11666;DHT22;5889;51.350;6.708;2022-12-24T06:14:24;10.40;99.90
11666;DHT22;5889;51.350;6.708;2022-12-24T06:16:51;10.40;99.90
11666;DHT22;5889;51.350;6.708;2022-12-24T06:19:18;10.40;99.90
11666;DHT22;5889;51.350;6.708;2022-12-24T06:21:45;10.40;99.90
11666;DHT22;5889;51.350;6.708;2022-12-24T06:24:13;10.40;99.90
11666;DHT22;5889;51.350;6.708;2022-12-24T06:26:40;10.50;99.90
11666;DHT22;5889;51.350;6.708;2022-12-24T06:29:07;10.50;99.90
11666;DHT22;5889;51.350;6.708;2022-12-24T06:31:34;10.50;99.90
11666;DHT22;5889;51.350;6.708;2022-12-24T06:34:01;10.40;99.90
11666;DHT22;5889;51.350;6.708;2022-12-24T06:36:29;10.40;99.90
11666;DHT22;5889;51.350;6.708;2022-12-24T06:38:56;10.40;99.90
11666;DHT22;5889;51.350;6.708;2022-12-24T06:41:24;10.40;99.90
11666;DHT22;5889;51.350;6.708;2022-12-24T06:43:52;10.40;99.90
11666;DHT22;5889;51.350;6.708;2022-12-24T06:46:19;10.40;99.90
11666;DHT22;5889;51.350;6.708;2022-12-24T06:48:46;10.40;99.90
11666;DHT22;5889;51.350;6.708;2022-12-24T06:51:15;10.40;99.90
11666;DHT22;5889;51.350;6.708;2022-12-24T06:53:44;10.40;99.90
11666;DHT22;5889;51.350;6.708;2022-12-24T06:56:12;10.40;99.90
11666;DHT22;5889;51.350;6.708;2022-12-24T06:58:41;10.30;99.90
11666;DHT22;5889;51.350;6.708;2022-12-24T07:01:10;10.40;99.90
11666;DHT22;5889;51.350;6.708;2022-12-24T07:03:38;10.30;99.90
11666;DHT22;5889;51.350;6.708;2022-12-24T07:06:05;10.30;99.90
11666;DHT22;5889;51.350;6.708;2022-12-24T07:08:33;10.30;99.90
11666;DHT22;5889;51.350;6.708;2022-12-24T07:11:01;10.30;99.90
11666;DHT22;5889;51.350;6.708;2022-12-24T07:13:28;10.30;99.90
11666;DHT22;5889;51.350;6.708;2022-12-24T07:15:58;10.40;99.90
11666;DHT22;5889;51.350;6.708;2022-12-24T07:18:25;10.40;99.90
11666;DHT22;5889;51.350;6.708;2022-12-24T07:20:52;10.40;99.90
11666;DHT22;5889;51.350;6.708;2022-12-24T07:23:20;10.40;99.90
11666;DHT22;5889;51.350;6.708;2022-12-24T07:25:47;10.40;99.90
11666;DHT22;5889;51.350;6.708;2022-12-24T07:28:14;10.30;99.90
11666;DHT22;5889;51.350;6.708;2022-12-24T07:30:41;10.30;99.90
11666;DHT22;5889;51.350;6.708;2022-12-24T07:33:09;10.20;99.90
11666;DHT22;5889;51.350;6.708;2022-12-24T07:35:36;10.20;99.90
11666;DHT22;5889;51.350;6.708;2022-12-24T07:38:03;10.20;99.90
11666;DHT22;5889;51.350;6.708;2022-12-24T07:40:30;10.20;99.90
11666;DHT22;5889;51.350;6.708;2022-12-24T07:42:59;10.20;99.90
11666;DHT22;5889;51.350;6.708;2022-12-24T07:45:26;10.10;99.90
11666;DHT22;5889;51.350;6.708;2022-12-24T07:47:53;10.10;99.90
11666;DHT22;5889;51.350;6.708;2022-12-24T07:50:21;10.10;99.90
11666;DHT22;5889;51.350;6.708;2022-12-24T07:52:48;10.10;99.90
11666;DHT22;5889;51.350;6.708;2022-12-24T07:55:15;10.10;99.90
11666;DHT22;5889;51.350;6.708;2022-12-24T07:57:42;10.10;99.90
11666;DHT22;5889;51.350;6.708;2022-12-24T08:00:09;10.10;99.90
11666;DHT22;5889;51.350;6.708;2022-12-24T08:02:37;10.10;99.90
11666;DHT22;5889;51.350;6.708;2022-12-24T08:05:05;10.10;99.90
11666;DHT22;5889;51.350;6.708;2022-12-24T08:07:33;10.20;99.90
11666;DHT22;5889;51.350;6.708;2022-12-24T08:10:00;10.20;99.90
11666;DHT22;5889;51.350;6.708;2022-12-24T08:12:27;10.20;99.90
11666;DHT22;5889;51.350;6.708;2022-12-24T08:14:54;10.20;99.90
11666;DHT22;5889;51.350;6.708;2022-12-24T08:17:21;10.20;99.90
11666;DHT22;5889;51.350;6.708;2022-12-24T08:19:47;10.10;99.90
11666;DHT22;5889;51.350;6.708;2022-12-24T08:22:14;10.10;99.90
11666;DHT22;5889;51.350;6.708;2022-12-24T08:24:43;10.10;99.90
11666;DHT22;5889;51.350;6.708;2022-12-24T08:27:10;10.10;99.90
11666;DHT22;5889;51.350;6.708;2022-12-24T08:29:37;10.10;99.90
11666;DHT22;5889;51.350;6.708;2022-12-24T08:32:04;10.10;99.90
11666;DHT22;5889;51.350;6.708;2022-12-24T08:34:31;10.10;99.90
11666;DHT22;5889;51.350;6.708;2022-12-24T08:36:58;10.10;99.90
11666;DHT22;5889;51.350;6.708;2022-12-24T08:39:24;10.10;99.90
11666;DHT22;5889;51.350;6.708;2022-12-24T08:41:53;10.10;99.90
11666;DHT22;5889;51.350;6.708;2022-12-24T08:44:20;10.20;99.90
11666;DHT22;5889;51.350;6.708;2022-12-24T08:46:47;10.20;99.90
11666;DHT22;5889;51.350;6.708;2022-12-24T08:49:14;10.20;99.90
11666;DHT22;5889;51.350;6.708;2022-12-24T08:51:41;10.20;99.90
11666;DHT22;5889;51.350;6.708;2022-12-24T08:54:08;10.30;99.90
11666;DHT22;5889;51.350;6.708;2022-12-24T08:56:34;10.30;99.90
11666;DHT22;5889;51.350;6.708;2022-12-24T08:59:03;10.30;99.90
11666;DHT22;5889;51.350;6.708;2022-12-24T09:01:30;10.30;99.90
11666;DHT22;5889;51.350;6.708;2022-12-24T09:03:57;10.40;99.90
11666;DHT22;5889;51.350;6.708;2022-12-24T09:06:24;10.40;99.90
11666;DHT22;5889;51.350;6.708;2022-12-24T09:08:50;10.50;99.90
11666;DHT22;5889;51.350;6.708;2022-12-24T09:11:18;10.50;99.90
11666;DHT22;5889;51.350;6.708;2022-12-24T09:13:45;10.50;99.90
11666;DHT22;5889;51.350;6.708;2022-12-24T09:16:14;10.50;99.90
11666;DHT22;5889;51.350;6.708;2022-12-24T09:18:41;10.50;99.90
11666;DHT22;5889;51.350;6.708;2022-12-24T09:21:10;10.60;99.90
11666;DHT22;5889;51.350;6.708;2022-12-24T09:23:40;10.60;99.90
11666;DHT22;5889;51.350;6.708;2022-12-24T09:26:08;10.70;99.90
11666;DHT22;5889;51.350;6.708;2022-12-24T09:28:35;10.70;99.90
11666;DHT22;5889;51.350;6.708;2022-12-24T09:31:03;10.70;99.90
11666;DHT22;5889;51.350;6.708;2022-12-24T09:33:33;10.70;99.90
11666;DHT22;5889;51.350;6.708;2022-12-24T09:36:01;10.80;99.90
11666;DHT22;5889;51.350;6.708;2022-12-24T09:38:28;10.80;99.90
11666;DHT22;5889;51.350;6.708;2022-12-24T09:40:57;10.80;99.90
11666;DHT22;5889;51.350;6.708;2022-12-24T09:43:28;10.90;99.90
11666;DHT22;5889;51.350;6.708;2022-12-24T09:46:05;11.00;99.90
11666;DHT22;5889;51.350;6.708;2022-12-24T09:48:37;11.00;99.90
11666;DHT22;5889;51.350;6.708;2022-12-24T09:51:07;11.00;99.90
11666;DHT22;5889;51.350;6.708;2022-12-24T09:53:38;11.00;99.90
11666;DHT22;5889;51.350;6.708;2022-12-24T09:56:11;11.10;99.90
11666;DHT22;5889;51.350;6.708;2022-12-24T09:58:43;11.10;99.90
11666;DHT22;5889;51.350;6.708;2022-12-24T10:01:12;11.10;99.90
11666;DHT22;5889;51.350;6.708;2022-12-24T10:03:47;11.10;99.90
11666;DHT22;5889;51.350;6.708;2022-12-24T10:06:16;11.10;99.90
11666;DHT22;5889;51.350;6.708;2022-12-24T10:09:03;11.10;99.90
11666;DHT22;5889;51.350;6.708;2022-12-24T10:11:42;11.20;99.90
11666;DHT22;5889;51.350;6.708;2022-12-24T10:14:30;11.20;99.90
11666;DHT22;5889;51.350;6.708;2022-12-24T10:17:06;11.30;99.90
11666;DHT22;5889;51.350;6.708;2022-12-24T10:19:44;11.30;99.90
11666;DHT22;5889;51.350;6.708;2022-12-24T10:22:21;11.30;99.90
11666;DHT22;5889;51.350;6.708;2022-12-24T10:24:52;11.30;99.90
11666;DHT22;5889;51.350;6.708;2022-12-24T10:27:27;11.30;99.90
11666;DHT22;5889;51.350;6.708;2022-12-24T10:29:58;11.20;99.90
11666;DHT22;5889;51.350;6.708;2022-12-24T10:32:31;11.30;99.90
11666;DHT22;5889;51.350;6.708;2022-12-24T10:35:05;11.30;99.90
11666;DHT22;5889;51.350;6.708;2022-12-24T10:37:34;11.40;99.90
11666;DHT22;5889;51.350;6.708;2022-12-24T10:40:02;11.40;99.90
11666;DHT22;5889;51.350;6.708;2022-12-24T10:42:35;11.40;99.90
11666;DHT22;5889;51.350;6.708;2022-12-24T10:45:05;11.40;99.90
11666;DHT22;5889;51.350;6.708;2022-12-24T10:47:33;11.50;99.90
11666;DHT22;5889;51.350;6.708;2022-12-24T10:50:11;11.50;99.90
11666;DHT22;5889;51.350;6.708;2022-12-24T10:52:41;11.50;99.90
11666;DHT22;5889;51.350;6.708;2022-12-24T10:55:19;11.50;99.90
11666;DHT22;5889;51.350;6.708;2022-12-24T10:57:58;11.50;99.90
11666;DHT22;5889;51.350;6.708;2022-12-24T11:00:26;11.50;99.90
11666;DHT22;5889;51.350;6.708;2022-12-24T11:03:14;11.60;99.90
11666;DHT22;5889;51.350;6.708;2022-12-24T11:05:59;11.60;99.90
11666;DHT22;5889;51.350;6.708;2022-12-24T11:08:26;11.70;99.90
11666;DHT22;5889;51.350;6.708;2022-12-24T11:10:56;11.70;99.90
11666;DHT22;5889;51.350;6.708;2022-12-24T11:13:26;11.70;99.90
11666;DHT22;5889;51.350;6.708;2022-12-24T11:16:00;11.70;99.90
11666;DHT22;5889;51.350;6.708;2022-12-24T11:18:27;11.80;99.90
11666;DHT22;5889;51.350;6.708;2022-12-24T11:20:56;11.70;99.90
11666;DHT22;5889;51.350;6.708;2022-12-24T11:23:26;11.80;99.90
11666;DHT22;5889;51.350;6.708;2022-12-24T11:25:54;11.80;99.90
11666;DHT22;5889;51.350;6.708;2022-12-24T11:28:24;11.90;99.90
11666;DHT22;5889;51.350;6.708;2022-12-24T11:31:03;11.90;99.90
11666;DHT22;5889;51.350;6.708;2022-12-24T11:33:32;11.90;99.90
11666;DHT22;5889;51.350;6.708;2022-12-24T11:36:12;11.90;99.90
11666;DHT22;5889;51.350;6.708;2022-12-24T11:38:39;11.90;99.90
11666;DHT22;5889;51.350;6.708;2022-12-24T11:41:09;11.90;99.90
11666;DHT22;5889;51.350;6.708;2022-12-24T11:43:40;11.90;99.90
11666;DHT22;5889;51.350;6.708;2022-12-24T11:46:13;12.00;99.90
11666;DHT22;5889;51.350;6.708;2022-12-24T11:48:41;12.00;99.90
11666;DHT22;5889;51.350;6.708;2022-12-24T11:51:21;12.00;99.90
11666;DHT22;5889;51.350;6.708;2022-12-24T11:53:54;12.00;99.90
11666;DHT22;5889;51.350;6.708;2022-12-24T11:56:29;12.00;99.90
11666;DHT22;5889;51.350;6.708;2022-12-24T11:59:03;12.00;99.90
11666;DHT22;5889;51.350;6.708;2022-12-24T12:01:35;12.00;99.90
11666;DHT22;5889;51.350;6.708;2022-12-24T12:04:06;12.00;99.90
11666;DHT22;5889;51.350;6.708;2022-12-24T12:06:41;12.10;99.90
11666;DHT22;5889;51.350;6.708;2022-12-24T12:09:12;12.10;99.90
11666;DHT22;5889;51.350;6.708;2022-12-24T12:11:44;12.20;99.90
11666;DHT22;5889;51.350;6.708;2022-12-24T12:14:17;12.30;99.90
11666;DHT22;5889;51.350;6.708;2022-12-24T12:16:50;12.40;99.90
11666;DHT22;5889;51.350;6.708;2022-12-24T12:19:32;12.50;99.90
11666;DHT22;5889;51.350;6.708;2022-12-24T12:22:06;12.60;99.90
11666;DHT22;5889;51.350;6.708;2022-12-24T12:24:44;12.80;99.90
11666;DHT22;5889;51.350;6.708;2022-12-24T12:27:30;12.90;99.90
11666;DHT22;5889;51.350;6.708;2022-12-24T12:30:00;13.00;99.90
11666;DHT22;5889;51.350;6.708;2022-12-24T12:32:34;13.00;99.90
11666;DHT22;5889;51.350;6.708;2022-12-24T12:35:13;12.90;99.90
11666;DHT22;5889;51.350;6.708;2022-12-24T12:37:49;12.90;99.90
11666;DHT22;5889;51.350;6.708;2022-12-24T12:40:18;12.80;99.90
11666;DHT22;5889;51.350;6.708;2022-12-24T12:42:52;12.70;99.90
11666;DHT22;5889;51.350;6.708;2022-12-24T12:45:38;12.60;99.90
11666;DHT22;5889;51.350;6.708;2022-12-24T12:48:33;12.70;99.90
11666;DHT22;5889;51.350;6.708;2022-12-24T12:51:07;12.80;99.90
11666;DHT22;5889;51.350;6.708;2022-12-24T12:53:46;12.80;99.90
11666;DHT22;5889;51.350;6.708;2022-12-24T12:56:26;12.90;99.90
11666;DHT22;5889;51.350;6.708;2022-12-24T12:58:57;12.90;99.90
11666;DHT22;5889;51.350;6.708;2022-12-24T13:01:33;12.90;99.90
11666;DHT22;5889;51.350;6.708;2022-12-24T13:13:54;13.00;99.90
11666;DHT22;5889;51.350;6.708;2022-12-24T13:16:42;13.00;99.90
11666;DHT22;5889;51.350;6.708;2022-12-24T13:19:26;13.00;99.90
11666;DHT22;5889;51.350;6.708;2022-12-24T13:21:57;12.90;99.90
11666;DHT22;5889;51.350;6.708;2022-12-24T13:24:26;12.80;99.90
11666;DHT22;5889;51.350;6.708;2022-12-24T13:27:03;12.70;99.90
11666;DHT22;5889;51.350;6.708;2022-12-24T13:29:41;12.70;99.90
11666;DHT22;5889;51.350;6.708;2022-12-24T13:32:39;12.70;99.90
11666;DHT22;5889;51.350;6.708;2022-12-24T13:35:35;12.60;99.90
11666;DHT22;5889;51.350;6.708;2022-12-24T13:38:40;12.60;99.90
11666;DHT22;5889;51.350;6.708;2022-12-24T13:41:36;12.50;99.90
11666;DHT22;5889;51.350;6.708;2022-12-24T13:47:03;12.60;99.90
11666;DHT22;5889;51.350;6.708;2022-12-24T13:49:34;12.50;99.90
11666;DHT22;5889;51.350;6.708;2022-12-24T13:52:23;12.40;99.90
11666;DHT22;5889;51.350;6.708;2022-12-24T13:55:15;12.40;99.90
11666;DHT22;5889;51.350;6.708;2022-12-24T13:57:46;12.40;99.90
11666;DHT22;5889;51.350;6.708;2022-12-24T14:00:36;12.40;99.90
11666;DHT22;5889;51.350;6.708;2022-12-24T14:03:20;12.40;99.90
11666;DHT22;5889;51.350;6.708;2022-12-24T14:05:50;12.40;99.90
11666;DHT22;5889;51.350;6.708;2022-12-24T14:08:27;12.30;99.90
11666;DHT22;5889;51.350;6.708;2022-12-24T14:11:03;12.30;99.90
11666;DHT22;5889;51.350;6.708;2022-12-24T14:13:50;12.20;99.90
11666;DHT22;5889;51.350;6.708;2022-12-24T14:16:18;12.20;99.90
11666;DHT22;5889;51.350;6.708;2022-12-24T14:18:56;12.10;99.90
11666;DHT22;5889;51.350;6.708;2022-12-24T14:21:26;12.10;99.90
11666;DHT22;5889;51.350;6.708;2022-12-24T14:23:55;12.00;99.90
11666;DHT22;5889;51.350;6.708;2022-12-24T14:26:27;12.00;99.90
11666;DHT22;5889;51.350;6.708;2022-12-24T14:28:56;11.90;99.90
11666;DHT22;5889;51.350;6.708;2022-12-24T14:31:24;11.90;99.90
11666;DHT22;5889;51.350;6.708;2022-12-24T14:34:04;11.80;99.90
11666;DHT22;5889;51.350;6.708;2022-12-24T14:36:32;11.90;99.90
11666;DHT22;5889;51.350;6.708;2022-12-24T14:39:15;11.80;99.90
11666;DHT22;5889;51.350;6.708;2022-12-24T14:41:51;11.80;99.90
11666;DHT22;5889;51.350;6.708;2022-12-24T14:44:25;11.70;99.90
11666;DHT22;5889;51.350;6.708;2022-12-24T14:46:57;11.70;99.90
11666;DHT22;5889;51.350;6.708;2022-12-24T14:49:38;11.70;99.90
11666;DHT22;5889;51.350;6.708;2022-12-24T14:52:14;11.60;99.90
11666;DHT22;5889;51.350;6.708;2022-12-24T14:54:43;11.60;99.90
11666;DHT22;5889;51.350;6.708;2022-12-24T14:57:19;11.50;99.90
11666;DHT22;5889;51.350;6.708;2022-12-24T14:59:49;11.50;99.90
11666;DHT22;5889;51.350;6.708;2022-12-24T15:02:35;11.40;99.90
11666;DHT22;5889;51.350;6.708;2022-12-24T15:05:10;11.40;99.90
11666;DHT22;5889;51.350;6.708;2022-12-24T15:07:42;11.40;99.90
11666;DHT22;5889;51.350;6.708;2022-12-24T15:10:35;11.30;99.90
11666;DHT22;5889;51.350;6.708;2022-12-24T15:13:06;11.30;99.90
11666;DHT22;5889;51.350;6.708;2022-12-24T15:15:34;11.20;99.90
11666;DHT22;5889;51.350;6.708;2022-12-24T15:18:02;11.20;99.90
11666;DHT22;5889;51.350;6.708;2022-12-24T15:20:31;11.10;99.90
11666;DHT22;5889;51.350;6.708;2022-12-24T15:22:59;11.00;99.90
11666;DHT22;5889;51.350;6.708;2022-12-24T15:25:28;11.00;99.90
11666;DHT22;5889;51.350;6.708;2022-12-24T15:27:56;11.00;99.90
11666;DHT22;5889;51.350;6.708;2022-12-24T15:30:25;10.90;99.90
11666;DHT22;5889;51.350;6.708;2022-12-24T15:32:54;10.80;99.90
11666;DHT22;5889;51.350;6.708;2022-12-24T15:35:43;10.80;99.90
11666;DHT22;5889;51.350;6.708;2022-12-24T15:38:25;10.80;99.90
11666;DHT22;5889;51.350;6.708;2022-12-24T15:40:55;10.70;99.90
11666;DHT22;5889;51.350;6.708;2022-12-24T15:43:23;10.60;99.90
11666;DHT22;5889;51.350;6.708;2022-12-24T15:45:51;10.60;99.90
11666;DHT22;5889;51.350;6.708;2022-12-24T15:48:22;10.50;99.90
11666;DHT22;5889;51.350;6.708;2022-12-24T15:50:52;10.50;99.90
11666;DHT22;5889;51.350;6.708;2022-12-24T15:53:26;10.40;99.90
11666;DHT22;5889;51.350;6.708;2022-12-24T15:56:06;10.40;99.90
11666;DHT22;5889;51.350;6.708;2022-12-24T15:58:35;10.40;99.90
11666;DHT22;5889;51.350;6.708;2022-12-24T16:01:25;10.30;99.90
11666;DHT22;5889;51.350;6.708;2022-12-24T16:03:57;10.20;99.90
11666;DHT22;5889;51.350;6.708;2022-12-24T16:06:27;10.10;99.90
11666;DHT22;5889;51.350;6.708;2022-12-24T16:08:54;10.10;99.90
11666;DHT22;5889;51.350;6.708;2022-12-24T16:11:25;10.10;99.90
11666;DHT22;5889;51.350;6.708;2022-12-24T16:14:02;10.00;99.90
11666;DHT22;5889;51.350;6.708;2022-12-24T16:16:32;10.00;99.90
11666;DHT22;5889;51.350;6.708;2022-12-24T16:19:00;9.90;99.90
11666;DHT22;5889;51.350;6.708;2022-12-24T16:21:30;9.80;99.90
11666;DHT22;5889;51.350;6.708;2022-12-24T16:24:04;9.80;99.90
11666;DHT22;5889;51.350;6.708;2022-12-24T16:26:33;9.70;99.90